This is the latest recevied weather packets stored in our database for station/object SP1GDK-10. If no packets are shown the sender has not sent any weather packets the latest 10 day(s).
| Time | Temp. | Humidity | Pressure | Rain* | Wind** | Luminosity | Snow |
|---|---|---|---|---|---|---|---|
| 1777347555 | 3.89° C | 10% | - | - | - | - | - |
| 1777346955 | 3.89° C | 10% | - | - | - | - | - |
| 1777345156 | 3.89° C | 99% | 1028.1 hPa | - | - | - | - |
| 1777341554 | 4.44° C | 81% | 1027.8 hPa | - | - | - | - |
| 1777340953 | 4.44° C | 81% | 1027.8 hPa | - | - | - | - |
| 1777339753 | 4.44° C | 78% | 1027.7 hPa | - | - | - | - |
| 1777338555 | 5° C | 73% | 1027.6 hPa | - | - | - | - |
| 1777336753 | 5° C | 68% | 1027.5 hPa | - | - | - | - |
| 1777334356 | 5.56° C | 64% | 1027.2 hPa | - | - | - | - |
| 1777328356 | 6.67° C | 48% | 1026.6 hPa | - | - | - | - |
| 1777326560 | 6.67° C | 46% | 1026.3 hPa | - | - | - | - |
| 1777315155 | 8.89° C | 40% | 1024.9 hPa | - | - | - | - |
| 1777313952 | 9.44° C | 37% | 1024.8 hPa | - | - | - | - |
| 1777305555 | 11.67° C | 41% | 1024.1 hPa | - | - | - | - |
| 1777300753 | 13.33° C | 39% | 1024.1 hPa | - | - | - | - |
| 1777290558 | 13.89° C | 36% | 1024.1 hPa | - | - | - | - |
| 1777289355 | 14.44° C | 31% | 1024.1 hPa | - | - | - | - |
| 1777286960 | 14.44° C | 33% | 1024.3 hPa | - | - | - | - |
| 1777285755 | 13.89° C | 36% | 1024.2 hPa | - | - | - | - |
| 1777279156 | 12.22° C | 40% | 1025.1 hPa | - | - | - | - |
| 1777278559 | 11.67° C | 40% | 1025.2 hPa | - | - | - | - |
| 1777275553 | 10.56° C | 44% | 1025.4 hPa | - | - | - | - |
| 1777271963 | 9.44° C | 60% | 1025.6 hPa | - | - | - | - |
| 1777267753 | 7.78° C | 90% | 1025.6 hPa | - | - | - | - |
| 1777264755 | 4.44° C | 10% | - | - | - | - | - |
* Rain since midnight (hover to see other rain measurements)
** Current wind speed in m/s (hover to see current wind gust speed)